createdAt,value
2018-07-07T00:02:34.000Z,24.84
2018-07-07T00:12:34.000Z,24.84
2018-07-07T00:22:34.000Z,24.79
2018-07-07T00:32:34.000Z,24.76
2018-07-07T00:42:35.000Z,24.69
2018-07-07T00:52:35.000Z,24.67
2018-07-07T01:02:35.000Z,24.61
2018-07-07T01:12:35.000Z,24.55
2018-07-07T01:22:35.000Z,24.52
2018-07-07T01:32:35.000Z,24.48
2018-07-07T01:42:35.000Z,24.42
2018-07-07T01:52:35.000Z,24.4
2018-07-07T02:02:35.000Z,24.37
2018-07-07T02:12:35.000Z,24.31
2018-07-07T02:22:35.000Z,24.3
2018-07-07T02:32:35.000Z,24.26
2018-07-07T02:42:35.000Z,24.2
2018-07-07T02:52:35.000Z,24.19
2018-07-07T03:02:35.000Z,24.17
2018-07-07T03:12:35.000Z,24.12
2018-07-07T03:22:35.000Z,24.09
2018-07-07T03:32:35.000Z,24.07
2018-07-07T03:42:35.000Z,24.03
2018-07-07T03:52:35.000Z,24.01
2018-07-07T04:02:35.000Z,23.94
2018-07-07T04:12:35.000Z,23.94
2018-07-07T04:22:35.000Z,23.9
2018-07-07T04:32:35.000Z,23.88
2018-07-07T04:42:35.000Z,23.88
2018-07-07T04:52:35.000Z,23.95
2018-07-07T05:02:35.000Z,23.95
2018-07-07T05:12:35.000Z,24.01
2018-07-07T05:22:35.000Z,24.02
2018-07-07T05:32:35.000Z,24.06
2018-07-07T05:42:35.000Z,24.12
2018-07-07T05:52:35.000Z,24.16
2018-07-07T06:02:35.000Z,24.12
2018-07-07T06:12:35.000Z,24.02
2018-07-07T06:22:35.000Z,23.85
2018-07-07T06:32:35.000Z,24.16
2018-07-07T06:42:35.000Z,24.31
2018-07-07T06:52:35.000Z,24.39
2018-07-07T07:02:35.000Z,24.38
2018-07-07T07:12:35.000Z,24.55
2018-07-07T07:22:35.000Z,24.52
2018-07-07T07:32:35.000Z,24.52
2018-07-07T07:42:35.000Z,24.45
2018-07-07T07:52:36.000Z,24.74
2018-07-07T08:02:35.000Z,25.02
2018-07-07T08:12:35.000Z,25.03
2018-07-07T08:22:35.000Z,25.14
2018-07-07T08:32:35.000Z,25.31
2018-07-07T08:42:35.000Z,25.39
2018-07-07T08:52:36.000Z,25.23
2018-07-07T09:02:36.000Z,25.35
2018-07-07T09:12:36.000Z,25.68
2018-07-07T09:22:36.000Z,25.88
2018-07-07T09:32:36.000Z,25.61
2018-07-07T09:42:36.000Z,25.92
2018-07-07T09:52:36.000Z,26.12
2018-07-07T10:02:36.000Z,26.09
2018-07-07T10:12:36.000Z,26.39
2018-07-07T10:22:36.000Z,26.2
2018-07-07T10:32:36.000Z,26.34
2018-07-07T10:42:36.000Z,26.38
2018-07-07T10:52:36.000Z,26.46
2018-07-07T11:02:36.000Z,26.51
2018-07-07T11:12:36.000Z,26.94
2018-07-07T11:22:36.000Z,26.67
2018-07-07T11:32:36.000Z,26.58
2018-07-07T11:42:36.000Z,26.87
2018-07-07T11:52:36.000Z,26.88
2018-07-07T12:02:36.000Z,26.93
2018-07-07T12:12:36.000Z,26.97
2018-07-07T12:22:36.000Z,27.05
2018-07-07T12:32:36.000Z,27.1
2018-07-07T12:42:36.000Z,26.96
2018-07-07T12:52:36.000Z,27.15
2018-07-07T13:02:36.000Z,27.07
2018-07-07T13:12:36.000Z,27.12
2018-07-07T13:22:36.000Z,27.06
2018-07-07T13:32:36.000Z,27.09
2018-07-07T13:42:36.000Z,26.96
2018-07-07T13:52:36.000Z,27.25
2018-07-07T14:02:36.000Z,27.1
2018-07-07T14:12:36.000Z,27.17
2018-07-07T14:22:36.000Z,27.13
2018-07-07T14:32:36.000Z,27.02
2018-07-07T14:42:36.000Z,27.08
2018-07-07T14:52:36.000Z,27.07
2018-07-07T15:02:36.000Z,27.01
2018-07-07T15:12:36.000Z,27.14
2018-07-07T15:22:36.000Z,27.05
2018-07-07T15:32:36.000Z,27.02
2018-07-07T15:42:36.000Z,27.01
2018-07-07T15:52:40.000Z,26.93
2018-07-07T16:02:36.000Z,26.98
2018-07-07T16:12:36.000Z,26.84
2018-07-07T16:22:36.000Z,26.89
2018-07-07T16:32:36.000Z,26.89
2018-07-07T16:42:36.000Z,26.86
2018-07-07T16:52:36.000Z,26.82
2018-07-07T17:02:37.000Z,26.83
2018-07-07T17:12:37.000Z,26.83
2018-07-07T17:22:37.000Z,26.83
2018-07-07T17:32:37.000Z,26.78
2018-07-07T17:42:37.000Z,26.79
2018-07-07T17:52:37.000Z,26.52
2018-07-07T18:02:39.000Z,26.62
2018-07-07T18:12:39.000Z,26.43
2018-07-07T18:22:39.000Z,26.33
2018-07-07T18:32:37.000Z,26.39
2018-07-07T18:42:37.000Z,26.33
2018-07-07T18:52:37.000Z,26.21
2018-07-07T19:02:37.000Z,26.29
2018-07-07T19:12:37.000Z,26.11
2018-07-07T19:22:37.000Z,25.84
2018-07-07T19:32:37.000Z,25.79
2018-07-07T19:42:37.000Z,25.89
2018-07-07T19:52:37.000Z,25.9
2018-07-07T20:02:37.000Z,25.77
2018-07-07T20:12:37.000Z,25.61
2018-07-07T20:22:37.000Z,25.68
2018-07-07T20:32:37.000Z,25.41
2018-07-07T20:42:37.000Z,25.38
2018-07-07T20:52:37.000Z,25.22
2018-07-07T21:02:37.000Z,25.34
2018-07-07T21:12:37.000Z,25.35
2018-07-07T21:22:37.000Z,25.28
2018-07-07T21:32:37.000Z,25.19
2018-07-07T21:42:37.000Z,25.11
2018-07-07T21:52:37.000Z,25.08
2018-07-07T22:02:37.000Z,24.97
2018-07-07T22:12:37.000Z,24.95
2018-07-07T22:32:37.000Z,24.89
2018-07-07T22:42:37.000Z,24.85
2018-07-07T22:52:37.000Z,24.79
2018-07-07T23:02:37.000Z,24.77
2018-07-07T23:12:37.000Z,24.73
2018-07-07T23:22:41.000Z,24.66
2018-07-07T23:32:37.000Z,24.63
2018-07-07T23:42:39.000Z,24.55
2018-07-07T23:52:37.000Z,24.49
